Time;durP1;ratioP1;P1;durP2;ratioP2;P2;SDS_P1;SDS_P2;PMS_P1;PMS_P2;Temp;Humidity;BMP_temperature;BMP_pressure;BME280_temperature;BME280_humidity;BME280_pressure;Samples;Min_cycle;Max_cycle;Signal;HPM_P1;HPM_P2
2021/07/31 00:01:03;;;;;;;7.72;7.12;;;;;;;22.66;60.11;99738.53;1673992;84;21041;-82
2021/07/31 00:03:29;;;;;;;7.47;6.62;;;;;;;22.69;59.63;99736.59;1676577;85;20995;-83
2021/07/31 00:05:56;;;;;;;6.78;6.22;;;;;;;22.65;60.11;99735.55;1671397;85;21332;-82
2021/07/31 00:08:22;;;;;;;7.33;6.72;;;;;;;22.61;60.04;99740.48;1675947;85;21116;-82
2021/07/31 00:10:50;;;;;;;5.85;5.45;;;;;;;22.63;60.10;99740.45;1622355;87;21117;-83
2021/07/31 00:13:17;;;;;;;7.97;6.85;;;;;;;22.63;60.47;99735.58;1683042;84;21041;-82
2021/07/31 00:15:43;;;;;;;6.53;6.03;;;;;;;22.56;60.39;99745.39;1723716;83;20958;-83
2021/07/31 00:18:10;;;;;;;8.80;6.87;;;;;;;22.51;60.59;99745.44;1702490;83;21606;-84
2021/07/31 00:20:39;;;;;;;11.30;6.60;;;;;;;22.45;60.79;99747.38;1693888;84;21078;-82
2021/07/31 00:23:05;;;;;;;8.18;6.87;;;;;;;22.31;61.06;99744.46;1689984;84;21137;-82
2021/07/31 00:25:32;;;;;;;8.55;7.03;;;;;;;22.23;61.37;99740.16;1689876;84;21550;-82
2021/07/31 00:27:58;;;;;;;7.80;5.80;;;;;;;22.19;61.71;99741.78;1691271;84;21058;-81
2021/07/31 00:30:26;;;;;;;6.22;5.60;;;;;;;22.19;61.70;99741.27;1691316;84;21023;-83
2021/07/31 00:32:53;;;;;;;7.10;6.33;;;;;;;22.24;61.53;99741.21;1695326;84;21166;-82
2021/07/31 00:35:20;;;;;;;6.97;5.30;;;;;;;22.24;61.79;99741.77;1689220;84;21060;-80
2021/07/31 00:37:46;;;;;;;8.18;7.37;;;;;;;22.15;62.11;99734.74;1683550;85;21166;-81
2021/07/31 00:40:13;;;;;;;8.13;7.40;;;;;;;22.07;62.11;99737.50;1663023;86;21101;-81
2021/07/31 00:42:44;;;;;;;7.97;7.15;;;;;;;22.03;62.61;99734.28;1662525;86;21102;-83
2021/07/31 00:45:13;;;;;;;5.95;5.53;;;;;;;22.04;63.09;99738.08;1671646;84;21062;-82
2021/07/31 00:47:41;;;;;;;6.22;5.72;;;;;;;22.14;63.84;99739.37;1686785;84;21574;-82
2021/07/31 00:50:08;;;;;;;7.22;6.60;;;;;;;22.38;63.21;99741.97;1693080;84;21622;-81
2021/07/31 00:52:36;;;;;;;12.23;7.12;;;;;;;22.52;62.42;99743.78;1695041;84;21086;-82
2021/07/31 00:55:06;;;;;;;6.95;6.35;;;;;;;22.48;62.22;99737.30;1681995;84;20998;-84
2021/07/31 00:57:35;;;;;;;7.58;6.95;;;;;;;21.85;61.76;99647.02;1678080;85;21081;-84
2021/07/31 01:00:08;;;;;;;7.28;6.58;;;;;;;22.41;61.78;99740.06;1678867;84;21057;-83
2021/07/31 01:02:35;;;;;;;6.92;6.22;;;;;;;22.32;61.96;99735.77;1694284;84;21003;-82
2021/07/31 01:05:03;;;;;;;7.50;6.10;;;;;;;22.23;62.49;99736.09;1685526;84;21071;-82
2021/07/31 01:07:30;;;;;;;8.98;6.20;;;;;;;22.27;63.20;99737.17;1694800;84;20974;-81
2021/07/31 01:09:56;;;;;;;6.80;6.15;;;;;;;22.45;62.41;99733.80;1631262;86;21661;-81
2021/07/31 01:12:24;;;;;;;6.50;5.92;;;;;;;22.56;62.71;99725.02;1616878;88;21068;-84
2021/07/31 01:14:52;;;;;;;7.28;6.67;;;;;;;22.63;61.92;99729.59;1661428;86;21151;-81
2021/07/31 01:17:18;;;;;;;6.85;6.35;;;;;;;22.67;62.00;99736.07;1659105;86;21572;-81
2021/07/31 01:19:45;;;;;;;7.67;6.85;;;;;;;22.69;61.73;99738.51;1657818;85;21052;-82
2021/07/31 01:22:12;;;;;;;6.95;6.20;;;;;;;22.63;61.65;99731.50;1666376;85;21023;-83
2021/07/31 01:24:39;;;;;;;8.00;6.70;;;;;;;22.66;61.68;99733.11;1665965;85;21016;-80
2021/07/31 01:27:07;;;;;;;7.00;6.40;;;;;;;22.73;61.65;99733.59;1662177;85;21516;-81
2021/07/31 01:29:34;;;;;;;7.33;6.50;;;;;;;22.80;61.40;99737.89;1660625;86;21148;-81
2021/07/31 01:32:03;;;;;;;7.25;6.50;;;;;;;22.80;61.52;99732.45;1663088;86;21044;-82
2021/07/31 01:34:30;;;;;;;6.72;5.80;;;;;;;22.90;61.28;99735.88;1664482;85;21156;-82
2021/07/31 01:36:58;;;;;;;10.18;6.75;;;;;;;22.96;60.71;99731.77;1663990;85;21064;-82
2021/07/31 01:39:26;;;;;;;6.78;6.25;;;;;;;22.94;60.71;99727.97;1664983;85;21508;-81
2021/07/31 01:41:52;;;;;;;7.85;6.17;;;;;;;22.90;60.44;99732.36;1662174;85;21008;-81
2021/07/31 01:44:19;;;;;;;6.05;5.45;;;;;;;22.85;60.84;99732.39;1664460;85;21573;-82
2021/07/31 01:46:45;;;;;;;14.25;6.83;;;;;;;22.89;60.37;99733.47;1664386;85;21017;-83
2021/07/31 01:49:12;;;;;;;6.58;5.97;;;;;;;22.85;60.53;99733.22;1665708;85;21024;-82
2021/07/31 01:51:40;;;;;;;8.00;5.50;;;;;;;22.71;60.82;99730.88;1664572;85;21615;-82
2021/07/31 01:54:06;;;;;;;9.53;6.80;;;;;;;22.65;61.08;99738.81;1647104;85;21042;-81
2021/07/31 01:56:32;;;;;;;6.83;6.22;;;;;;;22.63;60.97;99738.29;1660636;85;21092;-81
2021/07/31 01:59:00;;;;;;;7.00;5.72;;;;;;;22.54;61.17;99734.80;1650524;85;21081;-81
2021/07/31 02:01:27;;;;;;;7.90;5.70;;;;;;;22.43;61.86;99738.67;1665135;84;21009;-81
2021/07/31 02:03:54;;;;;;;9.43;6.33;;;;;;;22.44;61.71;99737.59;1664170;85;21810;-80
2021/07/31 02:06:39;;;;;;;8.13;6.08;;;;;;;22.45;61.61;99741.12;1650986;85;21074;-83
2021/07/31 02:09:06;;;;;;;6.78;6.17;;;;;;;22.39;61.07;99742.25;1646499;85;22327;-82
2021/07/31 02:11:33;;;;;;;8.20;6.67;;;;;;;22.25;60.94;99741.52;1665205;84;21560;-81
2021/07/31 02:14:02;;;;;;;7.37;6.78;;;;;;;22.11;61.26;99738.59;1664605;85;21046;-83
2021/07/31 02:16:30;;;;;;;7.50;6.85;;;;;;;22.02;61.47;99734.84;1660665;85;21096;-80
2021/07/31 02:18:58;;;;;;;6.37;5.78;;;;;;;21.96;61.87;99747.62;1632536;86;21034;-81
2021/07/31 02:21:26;;;;;;;6.65;5.65;;;;;;;21.97;62.19;99747.06;1630598;87;21082;-81
2021/07/31 02:24:00;;;;;;;7.83;6.70;;;;;;;22.01;61.78;99745.96;1628066;88;21197;-82
2021/07/31 02:26:35;;;;;;;7.53;6.70;;;;;;;21.95;62.01;99751.41;1628394;88;21065;-80
2021/07/31 02:29:04;;;;;;;8.28;7.47;;;;;;;21.88;62.66;99746.02;1629127;88;21172;-81
2021/07/31 02:31:32;;;;;;;7.40;6.60;;;;;;;21.87;62.86;99753.34;1630956;88;21034;-82
2021/07/31 02:33:58;;;;;;;12.82;8.03;;;;;;;21.84;63.02;99751.18;1641643;86;21672;-81
2021/07/31 02:36:27;;;;;;;7.85;7.05;;;;;;;21.79;63.38;99748.48;1608077;87;21664;-80
2021/07/31 02:38:55;;;;;;;7.55;6.40;;;;;;;21.74;63.33;99746.61;1643044;86;21148;-81
2021/07/31 02:41:22;;;;;;;9.83;6.97;;;;;;;21.78;63.73;99749.58;1655670;85;21095;-81
2021/07/31 02:43:49;;;;;;;8.48;6.30;;;;;;;21.78;63.64;99754.45;1630601;88;21561;-81
2021/07/31 02:46:16;;;;;;;10.75;7.62;;;;;;;21.76;63.62;99759.90;1617935;87;21046;-81
2021/07/31 02:48:43;;;;;;;8.00;7.03;;;;;;;21.71;63.97;99754.48;1592387;89;21093;-81
2021/07/31 02:51:14;;;;;;;12.35;8.40;;;;;;;21.67;64.12;99755.58;1612219;87;21039;-80
2021/07/31 02:53:59;;;;;;;11.60;7.22;;;;;;;21.67;64.10;99755.58;1663097;85;21046;-82
2021/07/31 02:56:27;;;;;;;10.35;7.78;;;;;;;21.72;64.13;99759.64;1654580;85;21047;-82
2021/07/31 02:58:54;;;;;;;14.13;8.55;;;;;;;21.76;64.24;99763.97;1649192;85;21115;-81
2021/07/31 03:01:20;;;;;;;9.28;7.85;;;;;;;21.77;64.41;99764.22;1657893;85;21066;-82
2021/07/31 03:03:47;;;;;;;10.90;8.60;;;;;;;21.82;64.68;99763.41;1656484;85;21078;-82
2021/07/31 03:06:15;;;;;;;11.38;7.60;;;;;;;21.89;64.97;99762.58;1653911;85;21090;-84
2021/07/31 03:08:42;;;;;;;8.78;7.75;;;;;;;22.16;64.50;99761.61;1647203;85;21125;-83
2021/07/31 03:11:09;;;;;;;9.18;8.25;;;;;;;22.61;63.71;99767.09;1659652;86;21455;-81
2021/07/31 03:13:36;;;;;;;12.25;7.42;;;;;;;23.12;62.13;99773.50;1660085;85;21113;-81
2021/07/31 03:16:07;;;;;;;8.48;6.60;;;;;;;23.57;60.61;99778.78;1662302;85;21089;-83
2021/07/31 03:18:35;;;;;;;13.53;7.65;;;;;;;24.13;58.67;99780.07;1597470;88;21099;-82
2021/07/31 03:21:03;;;;;;;9.15;8.25;;;;;;;24.55;57.25;99776.25;1578137;89;21063;-83
2021/07/31 03:23:31;;;;;;;11.73;7.62;;;;;;;24.76;56.36;99778.91;1563221;88;21079;-81
2021/07/31 03:26:00;;;;;;;8.18;7.37;;;;;;;24.91;55.96;99783.31;1599458;88;21019;-82
2021/07/31 03:28:28;;;;;;;8.85;7.90;;;;;;;25.06;55.83;99781.70;1600069;88;21685;-81
2021/07/31 03:30:58;;;;;;;9.08;8.05;;;;;;;25.25;55.60;99781.67;1595267;88;21070;-82
2021/07/31 03:33:24;;;;;;;14.50;8.78;;;;;;;25.48;55.19;99781.00;1576489;89;21044;-83
2021/07/31 03:35:54;;;;;;;9.18;8.28;;;;;;;25.68;54.70;99775.73;1602566;88;21127;-82
2021/07/31 03:38:29;;;;;;;19.67;8.43;;;;;;;25.93;53.88;99784.78;1603283;88;21032;-83
2021/07/31 03:40:56;;;;;;;14.78;7.40;;;;;;;26.22;52.92;99783.09;1603199;88;21023;-83
2021/07/31 03:43:24;;;;;;;13.43;8.78;;;;;;;26.52;52.58;99790.90;1578463;89;21096;-82
2021/07/31 03:45:50;;;;;;;11.28;7.67;;;;;;;26.80;51.74;99784.27;1601911;88;21020;-82
2021/07/31 03:48:17;;;;;;;11.85;6.85;;;;;;;27.07;50.90;99785.25;1604710;89;21035;-83
2021/07/31 03:50:43;;;;;;;10.05;8.38;;;;;;;27.32;50.29;99786.54;1603693;89;21538;-84
2021/07/31 03:53:10;;;;;;;14.23;8.35;;;;;;;27.56;49.85;99784.81;1599965;88;21107;-84
2021/07/31 03:55:39;;;;;;;12.95;7.62;;;;;;;27.84;49.18;99784.59;1598983;88;21088;-83
2021/07/31 03:58:06;;;;;;;13.40;7.85;;;;;;;28.11;48.55;99780.02;1598713;88;21139;-84
2021/07/31 04:00:33;;;;;;;9.10;7.22;;;;;;;28.31;48.12;99786.80;1599952;88;21071;-84
2021/07/31 04:03:01;;;;;;;10.48;7.45;;;;;;;28.51;47.62;99788.91;1597813;88;21063;-84
2021/07/31 04:05:28;;;;;;;13.25;8.30;;;;;;;28.74;46.52;99788.78;1600554;89;21830;-85
2021/07/31 04:08:07;;;;;;;11.68;7.65;;;;;;;29.01;45.43;99777.20;1563893;89;21116;-83
2021/07/31 04:10:52;;;;;;;12.45;6.85;;;;;;;29.29;44.85;99784.52;1604709;89;21032;-83
2021/07/31 04:13:38;;;;;;;9.03;7.00;;;;;;;29.65;43.71;99774.47;1581376;89;21042;-84
2021/07/31 04:16:09;;;;;;;11.28;6.28;;;;;;;30.09;42.91;99780.55;1581459;89;21106;-84
2021/07/31 04:18:36;;;;;;;14.53;6.15;;;;;;;30.57;41.94;99783.14;1565580;89;21114;-84
2021/07/31 04:21:09;;;;;;;7.92;6.35;;;;;;;31.00;41.06;99782.77;1618507;88;21125;-85
2021/07/31 04:23:36;;;;;;;6.20;5.60;;;;;;;31.38;40.29;99786.41;1608696;88;21174;-84
2021/07/31 04:26:16;;;;;;;5.85;5.25;;;;;;;31.75;39.30;99788.65;1643749;86;21048;-83
2021/07/31 04:28:44;;;;;;;9.58;5.40;;;;;;;32.08;37.93;99792.44;1647415;86;21064;-83
2021/07/31 04:31:14;;;;;;;7.00;5.08;;;;;;;32.28;37.62;99778.29;1647798;86;21099;-82
2021/07/31 04:33:43;;;;;;;5.97;4.17;;;;;;;32.46;36.41;99780.20;1645552;86;21943;-82
2021/07/31 04:36:09;;;;;;;8.50;4.47;;;;;;;32.58;36.45;99780.19;1611611;88;21137;-82
2021/07/31 04:38:37;;;;;;;7.37;3.95;;;;;;;32.59;35.20;99777.66;1620089;87;21595;-82
2021/07/31 04:41:05;;;;;;;9.33;4.72;;;;;;;32.47;35.56;99772.94;1621447;87;21107;-81
2021/07/31 04:43:33;;;;;;;5.12;4.75;;;;;;;32.42;34.68;99776.52;1612863;87;21084;-83
2021/07/31 04:46:00;;;;;;;6.33;4.05;;;;;;;32.29;34.90;99780.70;1621139;86;21023;-83
2021/07/31 04:48:26;;;;;;;5.53;4.03;;;;;;;32.28;34.57;99774.95;1615150;87;21115;-85
2021/07/31 04:51:18;;;;;;;9.25;4.78;;;;;;;32.44;34.18;99775.03;1614089;87;21063;-85
2021/07/31 04:53:46;;;;;;;8.00;4.00;;;;;;;32.55;33.89;99773.95;1614196;87;21131;-81
2021/07/31 04:56:13;;;;;;;9.10;4.85;;;;;;;32.51;34.25;99770.28;1595394;87;21111;-82
2021/07/31 04:58:40;;;;;;;5.62;4.30;;;;;;;32.56;33.30;99768.67;1620706;87;21021;-83
2021/07/31 05:01:06;;;;;;;7.53;4.08;;;;;;;32.55;32.71;99775.33;1621684;87;21057;-82
2021/07/31 05:03:32;;;;;;;8.28;4.42;;;;;;;32.60;33.09;99773.73;1639214;86;21150;-83
2021/07/31 05:05:58;;;;;;;4.53;3.77;;;;;;;32.57;31.85;99771.11;1636478;86;22312;-82
2021/07/31 05:08:25;;;;;;;7.97;3.98;;;;;;;32.52;32.27;99780.18;1634388;86;21181;-81
2021/07/31 05:10:53;;;;;;;8.35;4.33;;;;;;;32.62;33.28;99772.80;1633442;87;21093;-82
2021/07/31 05:13:19;;;;;;;8.85;3.83;;;;;;;32.74;32.29;99772.77;1649109;85;22049;-82
2021/07/31 05:15:48;;;;;;;5.62;3.62;;;;;;;32.88;32.88;99772.94;1677253;83;21063;-82
2021/07/31 05:18:14;;;;;;;9.33;4.17;;;;;;;33.09;32.70;99774.88;1702514;83;21060;-82
2021/07/31 05:20:45;;;;;;;5.55;4.90;;;;;;;33.29;31.61;99767.55;1678175;83;21119;-83
2021/07/31 05:23:13;;;;;;;4.58;3.90;;;;;;;33.48;31.27;99779.26;1686203;83;21675;-82
2021/07/31 05:25:46;;;;;;;10.93;3.90;;;;;;;33.65;31.10;99782.86;1692593;83;21048;-82
2021/07/31 05:28:13;;;;;;;8.05;3.90;;;;;;;33.73;30.50;99784.62;1690295;83;21095;-81
2021/07/31 05:30:43;;;;;;;8.33;3.65;;;;;;;33.78;30.33;99774.69;1693894;83;21081;-83
2021/07/31 05:33:10;;;;;;;8.53;4.12;;;;;;;33.79;29.96;99782.38;1691667;83;21107;-82
2021/07/31 05:35:36;;;;;;;6.85;3.10;;;;;;;33.72;30.59;99781.65;1674755;84;21075;-82
2021/07/31 05:38:03;;;;;;;4.53;3.40;;;;;;;33.68;29.68;99783.50;1678777;84;21081;-82
2021/07/31 05:40:29;;;;;;;5.92;3.20;;;;;;;33.53;28.88;99779.00;1676903;84;20979;-81
2021/07/31 05:42:55;;;;;;;8.73;2.60;;;;;;;33.34;29.45;99785.23;1678616;84;21033;-80
2021/07/31 05:45:22;;;;;;;7.15;3.50;;;;;;;33.27;29.57;99782.28;1686339;84;21025;-84
2021/07/31 05:47:50;;;;;;;6.87;3.42;;;;;;;33.18;29.85;99786.38;1693116;84;21028;-79
2021/07/31 05:50:16;;;;;;;8.48;3.42;;;;;;;33.25;29.37;99782.43;1685779;85;21056;-80
2021/07/31 05:52:42;;;;;;;8.73;3.80;;;;;;;33.24;30.02;99787.72;1690647;84;21000;-81
2021/07/31 05:55:09;;;;;;;6.12;3.47;;;;;;;33.27;30.75;99788.40;1690637;84;21151;-80
2021/07/31 05:57:35;;;;;;;8.78;4.03;;;;;;;33.30;30.15;99787.08;1644907;86;21278;-82
2021/07/31 06:00:06;;;;;;;6.10;3.35;;;;;;;33.28;30.23;99793.54;1644554;86;21364;-80
2021/07/31 06:02:34;;;;;;;10.80;4.22;;;;;;;33.09;30.52;99793.41;1641083;87;21082;-83
2021/07/31 06:05:03;;;;;;;6.42;3.92;;;;;;;32.89;30.74;99789.70;1643138;87;22142;-87
2021/07/31 06:07:28;;;;;;;8.30;3.05;;;;;;;32.84;30.60;99800.43;1632145;87;21212;-83
2021/07/31 06:09:56;;;;;;;9.98;3.65;;;;;;;32.95;30.77;99792.45;1623848;87;21115;-83
2021/07/31 06:12:23;;;;;;;8.98;3.22;;;;;;;33.10;31.09;99796.41;1619095;87;21184;-83
2021/07/31 06:14:50;;;;;;;6.67;3.45;;;;;;;33.30;31.47;99796.75;1599498;89;21151;-82
2021/07/31 06:17:16;;;;;;;6.78;2.80;;;;;;;33.51;30.66;99794.31;1610454;87;21078;-81
2021/07/31 06:19:44;;;;;;;3.75;2.20;;;;;;;33.59;30.31;99800.81;1599626;88;21115;-80
2021/07/31 06:22:11;;;;;;;4.72;2.72;;;;;;;33.69;29.93;99805.84;1597432;88;21588;-80
2021/07/31 06:24:38;;;;;;;4.03;2.62;;;;;;;33.75;29.91;99800.26;1631618;88;21093;-78
2021/07/31 06:27:05;;;;;;;8.28;3.85;;;;;;;33.94;29.10;99808.64;1582364;89;21057;-80
2021/07/31 06:29:32;;;;;;;8.85;3.02;;;;;;;34.04;29.03;99804.52;1588725;88;21022;-81
2021/07/31 06:32:02;;;;;;;2.98;2.50;;;;;;;34.15;28.63;99806.11;1662175;86;21070;-80
2021/07/31 06:34:28;;;;;;;7.80;1.77;;;;;;;34.15;28.36;99799.20;1649924;86;21155;-79
2021/07/31 06:36:54;;;;;;;2.40;1.95;;;;;;;34.07;28.22;99802.39;1657347;85;21125;-77
2021/07/31 06:39:21;;;;;;;3.83;1.60;;;;;;;34.02;28.25;99803.25;1654448;86;21139;-79
2021/07/31 06:41:47;;;;;;;5.37;2.95;;;;;;;34.01;27.95;99800.28;1653927;85;21096;-80
2021/07/31 06:44:15;;;;;;;3.42;2.42;;;;;;;34.00;28.65;99795.90;1650936;86;21110;-83
2021/07/31 06:46:44;;;;;;;8.38;2.17;;;;;;;33.90;29.06;99804.17;1656413;86;21050;-79
2021/07/31 06:49:10;;;;;;;2.08;1.92;;;;;;;33.87;28.97;99793.27;1661773;85;20986;-78
2021/07/31 06:51:40;;;;;;;7.05;2.37;;;;;;;33.70;28.22;99793.62;1649716;85;21100;-79
2021/07/31 06:54:06;;;;;;;4.35;1.67;;;;;;;33.48;28.49;99792.28;1656196;85;21621;-79
2021/07/31 06:56:35;;;;;;;5.33;2.17;;;;;;;33.28;28.44;99787.22;1617164;86;21054;-84
2021/07/31 06:59:03;;;;;;;2.42;1.90;;;;;;;33.09;28.38;99791.44;1613215;87;21015;-83
2021/07/31 07:01:31;;;;;;;4.78;1.55;;;;;;;32.84;29.08;99785.25;1654210;85;21098;-79
2021/07/31 07:03:58;;;;;;;2.30;2.12;;;;;;;32.73;30.04;99790.47;1664054;85;21003;-75
2021/07/31 07:06:25;;;;;;;3.35;2.22;;;;;;;32.90;29.59;99789.94;1665818;85;21073;-84
2021/07/31 07:08:52;;;;;;;3.30;1.75;;;;;;;33.14;28.78;99789.84;1655750;85;20967;-80
2021/07/31 07:11:18;;;;;;;4.67;2.12;;;;;;;33.21;28.22;99786.48;1663570;86;20998;-80
2021/07/31 07:13:45;;;;;;;3.58;2.40;;;;;;;33.19;28.91;99789.34;1656999;85;21546;-77
2021/07/31 07:16:16;;;;;;;3.52;2.62;;;;;;;33.29;28.26;99789.64;1658077;85;21098;-76
2021/07/31 07:18:43;;;;;;;4.65;2.35;;;;;;;33.36;28.38;99789.00;1671099;84;21077;-73
2021/07/31 07:21:14;;;;;;;3.58;1.85;;;;;;;33.29;27.73;99787.46;1650226;85;21089;-75
2021/07/31 07:23:40;;;;;;;4.05;1.87;;;;;;;33.10;27.98;99790.30;1619619;87;21019;-75
2021/07/31 07:26:15;;;;;;;2.92;1.62;;;;;;;32.96;28.60;99786.59;1611669;87;21109;-74
2021/07/31 07:28:40;;;;;;;3.05;1.62;;;;;;;32.99;28.28;99783.69;1662640;86;21027;-75
2021/07/31 07:31:12;;;;;;;3.92;2.33;;;;;;;33.04;28.27;99781.23;1663502;85;21429;-73
2021/07/31 07:33:42;;;;;;;4.25;2.20;;;;;;;32.95;28.72;99777.27;1661779;85;21088;-71
2021/07/31 07:36:17;;;;;;;4.33;2.10;;;;;;;33.06;28.87;99778.92;1651040;85;21541;-72
2021/07/31 07:38:45;;;;;;;2.12;1.35;;;;;;;33.13;28.21;99776.38;1658079;86;21021;-73
2021/07/31 07:41:13;;;;;;;2.92;1.55;;;;;;;32.93;28.72;99776.23;1657125;85;21013;-72
2021/07/31 07:43:40;;;;;;;6.15;1.55;;;;;;;32.69;28.73;99771.63;1660363;86;21566;-73
2021/07/31 07:46:10;;;;;;;4.53;1.75;;;;;;;32.49;29.14;99790.52;1659743;86;20974;-72
2021/07/31 07:48:37;;;;;;;4.03;2.15;;;;;;;32.34;29.30;99783.23;1664455;86;20990;-71
2021/07/31 07:51:05;;;;;;;6.87;2.27;;;;;;;32.22;29.51;99788.76;1657195;85;21029;-73
2021/07/31 07:53:32;;;;;;;4.08;1.92;;;;;;;32.06;29.67;99788.68;1659277;85;21113;-72
2021/07/31 07:55:59;;;;;;;1.82;1.70;;;;;;;31.88;30.02;99788.08;1647087;85;21783;-73
2021/07/31 07:58:26;;;;;;;2.27;1.87;;;;;;;31.82;30.71;99782.00;1618691;86;21046;-73
2021/07/31 08:00:53;;;;;;;2.85;1.95;;;;;;;31.80;30.15;99786.25;1620877;86;21129;-72
2021/07/31 08:03:21;;;;;;;1.70;1.37;;;;;;;31.80;30.16;99797.28;1625048;86;21058;-73
2021/07/31 08:05:47;;;;;;;2.05;1.77;;;;;;;31.76;29.88;99797.16;1621506;86;21089;-72
2021/07/31 08:08:14;;;;;;;3.50;1.80;;;;;;;31.66;29.56;99793.47;1627746;86;21046;-72
2021/07/31 08:10:40;;;;;;;1.72;1.62;;;;;;;31.61;30.33;99793.13;1617908;86;21066;-72
2021/07/31 08:13:08;;;;;;;3.77;2.08;;;;;;;31.59;29.75;99794.05;1625207;86;21049;-73
2021/07/31 08:15:34;;;;;;;4.28;2.75;;;;;;;31.58;29.68;99797.14;1627033;86;21653;-71
2021/07/31 08:18:02;;;;;;;1.42;1.32;;;;;;;31.56;29.58;99790.59;1603293;88;21366;-74
2021/07/31 08:20:29;;;;;;;3.25;1.72;;;;;;;31.56;29.17;99789.22;1604029;88;21143;-73
2021/07/31 08:22:55;;;;;;;2.45;2.17;;;;;;;31.55;29.08;99788.17;1617559;86;21077;-74
2021/07/31 08:25:22;;;;;;;3.20;1.82;;;;;;;31.58;29.05;99788.88;1637284;86;21160;-71
2021/07/31 08:27:49;;;;;;;1.77;1.52;;;;;;;31.61;28.92;99793.13;1655367;85;21367;-73
2021/07/31 08:30:15;;;;;;;2.12;1.98;;;;;;;31.48;28.92;99790.14;1658495;85;21121;-73
2021/07/31 08:32:43;;;;;;;3.35;1.45;;;;;;;31.37;29.13;99791.70;1654256;85;21065;-74
2021/07/31 08:35:11;;;;;;;3.37;2.00;;;;;;;31.32;29.44;99790.53;1682695;83;21018;-74
2021/07/31 08:37:39;;;;;;;2.60;1.62;;;;;;;31.34;29.62;99787.66;1688830;84;21667;-75
2021/07/31 08:40:12;;;;;;;3.40;1.72;;;;;;;31.38;29.48;99783.10;1680443;84;21048;-74
2021/07/31 08:42:42;;;;;;;5.40;1.52;;;;;;;31.38;29.06;99787.78;1685547;85;21032;-75
2021/07/31 08:45:12;;;;;;;1.60;1.45;;;;;;;31.35;29.01;99782.98;1692881;83;21511;-75
2021/07/31 08:47:39;;;;;;;4.70;1.82;;;;;;;31.31;29.56;99781.48;1693052;83;21463;-75
2021/07/31 08:50:10;;;;;;;2.37;1.65;;;;;;;31.33;29.74;99781.14;1692624;85;21443;-75
2021/07/31 08:52:36;;;;;;;2.30;1.98;;;;;;;31.36;29.56;99787.33;1683659;83;21030;-73
2021/07/31 08:55:04;;;;;;;5.45;1.60;;;;;;;31.42;28.57;99787.36;1688142;82;21002;-73
2021/07/31 08:57:30;;;;;;;2.58;1.32;;;;;;;31.47;28.39;99784.97;1689772;83;20970;-74
2021/07/31 08:59:56;;;;;;;1.70;1.50;;;;;;;31.44;28.69;99784.48;1690813;83;21022;-74
2021/07/31 09:02:23;;;;;;;2.30;1.67;;;;;;;31.46;28.72;99780.02;1688019;84;21021;-77
2021/07/31 09:04:51;;;;;;;1.47;1.37;;;;;;;31.52;28.80;99777.87;1689185;83;21121;-75
2021/07/31 09:07:20;;;;;;;3.10;1.30;;;;;;;31.52;28.89;99773.16;1663977;85;21538;-75
2021/07/31 09:09:47;;;;;;;3.37;1.67;;;;;;;31.52;29.07;99773.16;1691203;84;21018;-76
2021/07/31 09:12:14;;;;;;;1.65;1.55;;;;;;;31.52;28.39;99775.91;1689041;83;20966;-74
2021/07/31 09:14:46;;;;;;;6.30;1.95;;;;;;;31.47;29.16;99770.62;1692160;83;21022;-76
2021/07/31 09:17:26;;;;;;;2.17;2.08;;;;;;;31.44;28.46;99765.78;1692391;83;20990;-74
2021/07/31 09:19:56;;;;;;;5.67;1.90;;;;;;;31.35;28.85;99765.88;1689238;83;21057;-73
2021/07/31 09:22:24;;;;;;;1.98;1.77;;;;;;;31.20;29.42;99766.55;1692702;83;21106;-76
2021/07/31 09:25:09;;;;;;;6.90;1.98;;;;;;;31.09;29.53;99764.80;1692585;83;21030;-77
2021/07/31 09:27:36;;;;;;;1.82;1.70;;;;;;;31.06;29.88;99762.71;1691383;83;22283;-77
2021/07/31 09:30:06;;;;;;;3.58;2.47;;;;;;;31.06;29.69;99765.47;1689239;83;21077;-77
2021/07/31 09:32:42;;;;;;;1.92;1.82;;;;;;;31.07;29.78;99765.71;1686465;83;21140;-74
2021/07/31 09:35:20;;;;;;;;;;;;;;;31.06;29.45;99765.47;1686318;83;21164;-77
2021/07/31 09:37:49;;;;;;;1.80;1.70;;;;;;;30.96;29.64;99763.16;1692031;85;20113;-77
2021/07/31 09:40:28;;;;;;;1.77;1.62;;;;;;;30.84;29.76;99758.39;1691431;85;21161;-76
2021/07/31 09:42:56;;;;;;;2.08;1.90;;;;;;;30.71;29.54;99733.36;1664330;85;21017;-77
2021/07/31 09:45:32;;;;;;;2.00;1.55;;;;;;;30.93;29.86;99756.95;1686407;83;21045;-74
2021/07/31 09:48:03;;;;;;;;;;;;;;;30.99;29.82;99753.66;1668141;85;21017;-78
2021/07/31 09:50:46;;;;;;;1.67;1.57;;;;;;;31.12;29.87;99748.98;1692370;85;20159;-74
2021/07/31 09:53:21;;;;;;;1.75;1.42;;;;;;;31.10;28.63;99749.91;1687887;83;22127;-76
2021/07/31 09:55:51;;;;;;;;;;;;;;;31.06;28.98;99743.45;1693963;82;21058;-76
2021/07/31 09:58:20;;;;;;;2.42;2.15;;;;;;;31.08;29.27;99749.98;1688708;83;20496;-77
2021/07/31 10:00:53;;;;;;;9.63;2.17;;;;;;;31.07;29.62;99743.69;1689229;85;21617;-77
2021/07/31 10:03:19;;;;;;;1.90;1.77;;;;;;;31.12;29.90;99745.41;1689210;85;21049;-76
2021/07/31 10:05:45;;;;;;;1.87;1.55;;;;;;;31.15;29.85;99746.91;1686174;83;21189;-77
2021/07/31 10:08:14;;;;;;;1.87;1.77;;;;;;;31.17;30.04;99734.98;1690875;85;21101;-76
2021/07/31 10:10:41;;;;;;;2.10;1.17;;;;;;;31.25;29.96;99736.05;1687394;83;21002;-76
2021/07/31 10:13:10;;;;;;;1.42;1.42;;;;;;;31.35;29.37;99743.05;1684677;83;21073;-76
2021/07/31 10:15:36;;;;;;;3.05;1.62;;;;;;;31.39;29.60;99737.09;1687834;83;21295;-78
2021/07/31 10:18:11;;;;;;;1.75;1.60;;;;;;;31.41;29.36;99737.55;1689903;83;21145;-77
2021/07/31 10:23:02;;;;;;;4.53;1.90;;;;;;;31.50;29.03;99734.72;1765502;78;22988;-79
2021/07/31 10:25:28;;;;;;;2.75;1.72;;;;;;;31.55;28.97;99727.03;1694949;82;21124;-77
2021/07/31 10:28:03;;;;;;;3.85;2.17;;;;;;;31.66;28.87;99727.94;1706498;82;21120;-76
2021/07/31 10:30:34;;;;;;;6.65;1.62;;;;;;;31.70;28.39;99728.84;1702557;83;21136;-77
2021/07/31 10:33:02;;;;;;;1.80;1.70;;;;;;;31.64;27.93;99722.77;1703408;83;21116;-77
2021/07/31 10:35:38;;;;;;;1.77;1.52;;;;;;;31.58;28.38;99722.19;1703588;82;21001;-77
2021/07/31 10:38:09;;;;;;;5.92;1.80;;;;;;;31.55;28.53;99728.41;1706576;82;21025;-77
2021/07/31 10:40:42;;;;;;;2.60;1.22;;;;;;;31.58;28.53;99714.52;1708511;82;21107;-77
2021/07/31 10:43:13;;;;;;;2.08;1.60;;;;;;;31.57;29.19;99724.73;1692436;82;21057;-77
2021/07/31 10:45:40;;;;;;;4.28;1.95;;;;;;;31.61;29.04;99721.52;1695659;82;21092;-78
2021/07/31 10:48:26;;;;;;;2.52;1.77;;;;;;;31.70;28.88;99724.71;1694123;82;21095;-77
2021/07/31 10:50:55;;;;;;;2.15;1.65;;;;;;;31.76;28.84;99721.39;1704900;82;21751;-78
2021/07/31 10:53:22;;;;;;;2.67;1.57;;;;;;;31.84;28.46;99723.80;1695430;82;21568;-78
2021/07/31 10:55:56;;;;;;;3.35;2.05;;;;;;;31.86;28.42;99724.83;1695758;83;21189;-77
2021/07/31 10:58:22;;;;;;;1.40;1.25;;;;;;;31.88;28.55;99726.08;1695001;84;20994;-78
2021/07/31 11:01:13;;;;;;;1.75;1.32;;;;;;;31.94;28.43;99721.92;1683206;84;21557;-77
2021/07/31 11:03:41;;;;;;;5.67;1.20;;;;;;;31.97;27.65;99722.62;1670783;84;21082;-77
2021/07/31 11:06:07;;;;;;;1.45;1.35;;;;;;;31.90;27.94;99717.47;1671657;84;21010;-77
2021/07/31 11:08:54;;;;;;;6.03;2.00;;;;;;;31.87;28.04;99714.81;1681097;84;21080;-77
2021/07/31 11:11:26;;;;;;;2.65;1.65;;;;;;;31.78;27.85;99711.41;1686476;84;21050;-76
2021/07/31 11:13:55;;;;;;;2.05;1.95;;;;;;;31.70;28.06;99708.19;1674468;84;21094;-76
2021/07/31 11:16:26;;;;;;;2.50;1.60;;;;;;;31.61;28.34;99705.57;1639700;85;21086;-78
2021/07/31 11:18:56;;;;;;;1.98;1.80;;;;;;;31.65;28.41;99700.15;1639882;85;21085;-77
2021/07/31 11:21:36;;;;;;;1.42;1.32;;;;;;;31.75;28.24;99707.95;1644336;85;21087;-78
2021/07/31 11:24:08;;;;;;;2.02;1.80;;;;;;;31.73;27.51;99702.79;1611916;87;21077;-76
2021/07/31 11:26:54;;;;;;;1.60;1.50;;;;;;;31.65;27.76;99700.15;1632450;86;21568;-76
2021/07/31 11:29:27;;;;;;;2.40;1.77;;;;;;;31.55;28.03;99696.73;1632565;86;21049;-79
2021/07/31 11:32:14;;;;;;;1.77;1.57;;;;;;;31.53;28.13;99692.16;1632622;87;21111;-79
2021/07/31 11:36:58;;;;;;;2.50;2.22;;;;;;;31.56;28.75;99695.57;1802460;78;22805;-76
2021/07/31 11:39:25;;;;;;;2.75;1.75;;;;;;;31.38;28.83;99689.48;1771966;79;21144;-76
2021/07/31 11:42:00;;;;;;;3.65;1.45;;;;;;;31.25;29.10;99697.52;1792343;80;21030;-77
2021/07/31 11:44:30;;;;;;;1.75;1.40;;;;;;;31.19;29.19;99686.47;1770861;79;20978;-77
2021/07/31 11:46:58;;;;;;;3.08;1.60;;;;;;;31.18;29.32;99689.81;1761897;81;21029;-77